createdAt,value
2022-12-09T00:04:53.553Z,2.97
2022-12-09T00:09:55.286Z,2.91
2022-12-09T00:14:56.844Z,2.85
2022-12-09T00:19:58.390Z,2.86
2022-12-09T00:24:59.964Z,2.97
2022-12-09T00:30:01.693Z,2.91
2022-12-09T00:35:04.806Z,2.81
2022-12-09T00:40:07.324Z,2.78
2022-12-09T00:45:09.444Z,2.78
2022-12-09T00:50:11.386Z,2.84
2022-12-09T00:55:13.347Z,2.88
2022-12-09T01:00:15.297Z,3.02
2022-12-09T01:05:16.969Z,2.93
2022-12-09T01:10:18.766Z,2.86
2022-12-09T01:15:20.336Z,2.82
2022-12-09T01:20:22.182Z,2.81
2022-12-09T01:25:23.792Z,2.89
2022-12-09T01:30:25.476Z,2.87
2022-12-09T01:35:28.802Z,2.85
2022-12-09T01:40:30.572Z,2.88
2022-12-09T01:45:39.148Z,2.89
2022-12-09T01:51:12.423Z,2.95
2022-12-09T01:56:27.229Z,2.90
2022-12-09T02:01:29.132Z,2.89
2022-12-09T02:06:31.112Z,2.84
2022-12-09T02:12:06.223Z,2.90
2022-12-09T02:17:13.959Z,3.09
2022-12-09T02:22:21.283Z,3.24
2022-12-09T02:27:36.667Z,3.24
2022-12-09T02:33:01.315Z,3.23
2022-12-09T02:38:08.758Z,3.30
2022-12-09T02:43:12.789Z,3.25
2022-12-09T02:48:18.672Z,3.23
2022-12-09T02:53:21.796Z,3.25
2022-12-09T02:58:23.630Z,3.27
2022-12-09T03:03:27.423Z,3.24
2022-12-09T03:08:53.229Z,3.22
2022-12-09T03:14:06.211Z,3.23
2022-12-09T03:19:36.367Z,3.18
2022-12-09T03:25:10.402Z,3.17
2022-12-09T03:30:13.554Z,3.13
2022-12-09T03:35:23.438Z,3.15
2022-12-09T03:40:27.108Z,3.13
2022-12-09T03:45:29.489Z,3.11
2022-12-09T03:50:40.029Z,3.17
2022-12-09T03:56:16.702Z,3.23
2022-12-09T04:01:19.846Z,3.25
2022-12-09T04:06:22.546Z,3.22
2022-12-09T04:11:24.347Z,3.20
2022-12-09T04:16:26.425Z,3.18
2022-12-09T04:21:28.603Z,3.15
2022-12-09T04:26:30.426Z,2.99
2022-12-09T04:31:32.526Z,2.95
2022-12-09T04:36:34.136Z,2.93
2022-12-09T04:41:36.852Z,2.78
2022-12-09T04:46:38.668Z,2.45
2022-12-09T04:51:40.922Z,2.32
2022-12-09T04:56:42.652Z,2.41
2022-12-09T05:01:44.388Z,2.32
2022-12-09T05:06:46.402Z,2.31
2022-12-09T05:11:48.548Z,2.27
2022-12-09T05:16:50.259Z,2.18
2022-12-09T05:21:51.973Z,2.17
2022-12-09T05:26:53.734Z,2.16
2022-12-09T05:31:55.371Z,2.21
2022-12-09T05:36:57.282Z,2.06
2022-12-09T05:41:59.377Z,2.12
2022-12-09T05:47:01.469Z,2.03
2022-12-09T05:52:03.305Z,2.19
2022-12-09T05:57:05.296Z,2.19
2022-12-09T06:02:09.996Z,2.32
2022-12-09T06:07:12.261Z,2.40
2022-12-09T06:12:14.642Z,2.45
2022-12-09T06:17:16.472Z,2.50
2022-12-09T06:22:18.568Z,2.56
2022-12-09T06:27:20.205Z,2.63
2022-12-09T06:32:22.624Z,2.69
2022-12-09T06:37:24.705Z,2.72
2022-12-09T06:42:26.476Z,2.77
2022-12-09T06:47:28.982Z,2.80
2022-12-09T06:52:30.690Z,2.80
2022-12-09T06:57:32.879Z,2.77
2022-12-09T07:02:36.717Z,2.78
2022-12-09T07:07:38.811Z,2.76
2022-12-09T07:12:40.730Z,2.75
2022-12-09T07:17:42.532Z,2.72
2022-12-09T07:22:44.279Z,2.69
2022-12-09T07:27:45.975Z,2.64
2022-12-09T07:32:47.954Z,2.59
2022-12-09T07:37:49.830Z,2.51
2022-12-09T07:42:54.901Z,2.50
2022-12-09T07:48:00.781Z,2.59
2022-12-09T07:53:02.603Z,2.59
2022-12-09T07:58:04.431Z,2.61
2022-12-09T08:03:06.496Z,2.61
2022-12-09T08:08:08.505Z,2.57
2022-12-09T08:13:10.983Z,2.26
2022-12-09T08:18:12.835Z,2.39
2022-12-09T08:23:15.042Z,2.68
2022-12-09T08:28:17.140Z,2.90
2022-12-09T08:33:19.055Z,3.05
2022-12-09T08:38:21.022Z,3.29
2022-12-09T08:43:22.725Z,3.57
2022-12-09T08:48:24.661Z,3.93
2022-12-09T08:53:26.378Z,4.14
2022-12-09T08:58:28.129Z,4.19
2022-12-09T09:03:29.867Z,4.36
2022-12-09T09:08:32.849Z,4.38
2022-12-09T09:13:34.766Z,4.43
2022-12-09T09:18:37.015Z,4.66
2022-12-09T09:23:40.078Z,4.91
2022-12-09T09:28:41.972Z,4.89
2022-12-09T09:33:44.416Z,5.17
2022-12-09T09:38:47.164Z,5.40
2022-12-09T09:43:49.877Z,5.39
2022-12-09T09:48:53.033Z,5.49
2022-12-09T09:53:55.577Z,5.52
2022-12-09T09:59:20.504Z,5.50
2022-12-09T10:04:31.536Z,5.59
2022-12-09T10:09:53.157Z,5.54
2022-12-09T10:14:55.431Z,5.56
2022-12-09T10:20:11.935Z,5.74
2022-12-09T10:25:22.850Z,5.56
2022-12-09T10:30:26.296Z,5.79
2022-12-09T10:35:32.941Z,5.85
2022-12-09T10:40:38.259Z,5.89
2022-12-09T10:51:13.148Z,6.58
2022-12-09T10:56:28.407Z,6.70
2022-12-09T11:01:30.591Z,6.61
2022-12-09T11:06:41.723Z,6.78
2022-12-09T11:11:47.174Z,6.99
2022-12-09T11:16:54.591Z,6.80
2022-12-09T11:22:13.625Z,6.69
2022-12-09T11:27:26.196Z,6.14
2022-12-09T11:32:28.451Z,5.85
2022-12-09T11:37:31.959Z,5.41
2022-12-09T11:42:33.722Z,5.41
2022-12-09T11:48:21.632Z,5.35
2022-12-09T11:53:12.876Z,5.40
2022-12-09T11:58:20.825Z,5.41
2022-12-09T12:03:29.905Z,5.47
2022-12-09T12:08:46.505Z,5.29
2022-12-09T12:13:50.962Z,5.33
2022-12-09T12:19:07.351Z,5.25
2022-12-09T12:24:39.885Z,5.34
2022-12-09T12:30:05.564Z,5.48
2022-12-09T12:35:31.720Z,5.37
2022-12-09T12:40:42.485Z,5.25
2022-12-09T12:46:18.251Z,5.42
2022-12-09T12:51:22.828Z,5.22
2022-12-09T12:56:53.859Z,5.23
2022-12-09T13:02:13.747Z,5.16
2022-12-09T13:07:25.119Z,5.12
2022-12-09T13:12:53.797Z,5.28
2022-12-09T13:17:55.864Z,5.03
2022-12-09T13:23:03.259Z,5.00
2022-12-09T13:28:16.192Z,5.02
2022-12-09T13:33:17.686Z,5.06
2022-12-09T13:38:32.263Z,5.02
2022-12-09T13:43:33.821Z,5.04
2022-12-09T13:48:43.066Z,4.92
2022-12-09T13:53:49.720Z,4.83
2022-12-09T13:59:30.936Z,4.83
2022-12-09T14:04:37.408Z,4.87
2022-12-09T14:09:47.244Z,4.71
2022-12-09T14:14:52.498Z,4.62
2022-12-09T14:20:00.971Z,4.66
2022-12-09T14:25:34.867Z,4.68
2022-12-09T14:30:56.176Z,4.48
2022-12-09T14:36:04.916Z,4.41
2022-12-09T14:41:12.556Z,4.56
2022-12-09T14:46:25.572Z,4.55
2022-12-09T14:51:37.360Z,4.52
2022-12-09T14:56:39.202Z,4.44
2022-12-09T15:02:07.203Z,4.34
2022-12-09T15:07:25.105Z,4.32
2022-12-09T15:12:40.333Z,4.15
2022-12-09T15:17:45.469Z,4.10
2022-12-09T15:22:52.839Z,4.17
2022-12-09T15:28:13.365Z,4.21
2022-12-09T15:33:18.126Z,4.19
2022-12-09T15:38:20.463Z,4.13
2022-12-09T15:43:22.138Z,4.10
2022-12-09T15:48:30.211Z,4.18
2022-12-09T15:53:41.793Z,3.95
2022-12-09T15:58:52.704Z,3.92
2022-12-09T16:03:56.556Z,3.86
2022-12-09T16:08:59.275Z,3.90
2022-12-09T16:14:01.331Z,3.85
2022-12-09T16:19:02.980Z,4.03
2022-12-09T16:24:12.877Z,3.84
2022-12-09T16:29:27.719Z,3.76
2022-12-09T16:34:29.906Z,3.75
2022-12-09T16:39:33.402Z,3.78
2022-12-09T16:44:38.261Z,3.63
2022-12-09T16:49:41.527Z,3.73
2022-12-09T16:54:45.576Z,3.56
2022-12-09T16:59:47.615Z,3.62
2022-12-09T17:04:50.549Z,3.64
2022-12-09T17:09:52.302Z,3.61
2022-12-09T17:14:54.372Z,3.67
2022-12-09T17:19:55.997Z,3.60
2022-12-09T17:24:57.636Z,3.71
2022-12-09T17:29:59.199Z,3.59
2022-12-09T17:35:00.736Z,3.53
2022-12-09T17:40:06.568Z,3.45
2022-12-09T17:45:08.990Z,3.49
2022-12-09T17:50:11.054Z,3.49
2022-12-09T17:55:12.731Z,3.60
2022-12-09T18:00:15.150Z,3.64
2022-12-09T18:05:16.766Z,3.49
2022-12-09T18:10:18.510Z,3.37
2022-12-09T18:15:20.067Z,3.50
2022-12-09T18:20:21.816Z,3.30
2022-12-09T18:25:23.669Z,3.39
2022-12-09T18:30:25.205Z,3.44
2022-12-09T18:35:27.228Z,3.37
2022-12-09T18:40:29.002Z,3.36
2022-12-09T18:45:30.579Z,3.35
2022-12-09T18:50:37.131Z,3.37
2022-12-09T18:55:42.610Z,3.33
2022-12-09T19:00:44.268Z,3.37
2022-12-09T19:05:45.797Z,3.36
2022-12-09T19:10:54.408Z,3.21
2022-12-09T19:15:55.970Z,3.22
2022-12-09T19:21:07.946Z,3.19
2022-12-09T19:26:24.983Z,3.32
2022-12-09T19:31:36.034Z,3.28
2022-12-09T19:36:37.887Z,3.16
2022-12-09T19:41:40.493Z,3.20
2022-12-09T19:46:42.168Z,3.16
2022-12-09T19:51:44.380Z,3.13
2022-12-09T19:56:47.681Z,3.05
2022-12-09T20:01:49.762Z,3.14
2022-12-09T20:06:51.433Z,2.98
2022-12-09T20:11:53.086Z,3.12
2022-12-09T20:16:54.741Z,3.03
2022-12-09T20:21:56.333Z,2.99
2022-12-09T20:26:58.224Z,3.08
2022-12-09T20:31:59.809Z,2.95
2022-12-09T20:37:01.414Z,3.09
2022-12-09T20:42:02.979Z,3.06
2022-12-09T20:47:04.562Z,3.01
2022-12-09T20:52:06.535Z,3.00
2022-12-09T20:57:08.110Z,3.10
2022-12-09T21:02:13.942Z,2.89
2022-12-09T21:07:16.527Z,2.80
2022-12-09T21:12:18.091Z,3.07
2022-12-09T21:17:19.654Z,2.89
2022-12-09T21:22:21.214Z,2.79
2022-12-09T21:27:22.836Z,2.90
2022-12-09T21:32:24.419Z,2.81
2022-12-09T21:37:25.980Z,2.84
2022-12-09T21:42:27.544Z,2.73
2022-12-09T21:47:29.076Z,2.92
2022-12-09T21:52:30.781Z,2.93
2022-12-09T21:57:34.136Z,2.91
2022-12-09T22:02:35.812Z,3.04
2022-12-09T22:07:37.524Z,3.11
2022-12-09T22:12:39.084Z,3.08
2022-12-09T22:17:40.712Z,3.16
2022-12-09T22:22:42.255Z,3.03
2022-12-09T22:27:43.827Z,2.86
2022-12-09T22:32:50.461Z,2.86
2022-12-09T22:37:52.404Z,2.96
2022-12-09T22:42:53.944Z,3.10
2022-12-09T22:47:55.528Z,3.23
2022-12-09T22:52:57.203Z,3.07
2022-12-09T22:57:58.748Z,2.94
2022-12-09T23:03:00.397Z,2.99
2022-12-09T23:08:02.136Z,3.16
2022-12-09T23:13:04.306Z,2.99
2022-12-09T23:18:06.261Z,3.15
2022-12-09T23:23:08.283Z,3.05
2022-12-09T23:28:11.613Z,2.98
2022-12-09T23:33:13.183Z,2.99
2022-12-09T23:38:14.732Z,3.14
2022-12-09T23:43:16.281Z,2.95
2022-12-09T23:48:17.841Z,3.13
2022-12-09T23:53:19.565Z,2.97
2022-12-09T23:58:21.171Z,2.97
